Terminal Aerodrome Forecast
Issued by NWS

Home | Current Version | Previous Version | Text Only | Print | Product List | Glossary On
Versions: 1 2 3 4 5 6 7 8 9 10 11
106
FTUS43 KMPX 192332
TAFAXN
TAF
KAXN 192332Z 2000/2024 22007KT P6SM SCT250
     FM200700 18007KT P6SM SCT250
     FM201600 20012KT P6SM BKN150=

USA.gov is the U.S. government's official web portal to all federal, state and local government web resources and services.